Time;durP1;ratioP1;P1;durP2;ratioP2;P2;SDS_P1;SDS_P2;PMS_P1;PMS_P2;Temp;Humidity;BMP_temperature;BMP_pressure;BME280_temperature;BME280_humidity;BME280_pressure;Samples;Min_cycle;Max_cycle;Signal;HPM_P1;HPM_P2
2023/10/03 00:00:24;;;;;;;29.25;15.52;;;13.70;99.90;;;;;;5076362;28;20291;-89
2023/10/03 00:02:55;;;;;;;28.60;15.27;;;13.70;99.90;;;;;;5082846;28;20204;-89
2023/10/03 00:05:28;;;;;;;30.60;15.45;;;13.60;99.90;;;;;;5074628;28;20197;-89
2023/10/03 00:07:55;;;;;;;31.48;15.88;;;13.60;99.90;;;;;;5075753;28;20201;-89
2023/10/03 00:10:22;;;;;;;30.63;15.75;;;13.50;99.90;;;;;;5074049;28;20200;-89
2023/10/03 00:12:51;;;;;;;29.15;15.07;;;13.40;99.90;;;;;;5078100;28;20197;-89
2023/10/03 00:15:21;;;;;;;28.77;15.32;;;13.40;99.90;;;;;;5078545;28;20200;-89
2023/10/03 00:17:47;;;;;;;28.67;15.73;;;13.30;99.90;;;;;;5077026;28;20193;-89
2023/10/03 00:20:16;;;;;;;27.27;14.07;;;13.20;99.90;;;;;;5082088;28;20228;-89
2023/10/03 00:22:45;;;;;;;30.60;15.45;;;13.20;99.90;;;;;;5090394;28;20219;-89
2023/10/03 00:25:18;;;;;;;30.92;15.20;;;13.20;99.90;;;;;;5081446;28;20208;-89
2023/10/03 00:27:46;;;;;;;29.25;14.40;;;13.20;99.90;;;;;;5077796;28;20196;-89
2023/10/03 00:30:14;;;;;;;27.48;14.13;;;13.10;99.90;;;;;;5080956;28;20697;-89
2023/10/03 00:32:42;;;;;;;28.27;14.32;;;13.00;99.90;;;;;;5085229;28;20200;-88
2023/10/03 00:35:10;;;;;;;28.00;14.60;;;13.00;99.90;;;;;;5070145;28;20201;-89
2023/10/03 00:37:38;;;;;;;28.00;14.30;;;13.00;99.90;;;;;;5082384;28;20196;-89
2023/10/03 00:40:16;;;;;;;26.02;13.52;;;13.00;99.90;;;;;;5088603;28;20757;-89
2023/10/03 00:42:45;;;;;;;30.48;14.25;;;12.90;99.90;;;;;;5081283;28;20232;-89
2023/10/03 00:45:14;;;;;;;29.17;13.77;;;13.00;99.90;;;;;;5083063;28;20279;-89
2023/10/03 00:47:42;;;;;;;31.17;14.38;;;12.90;99.90;;;;;;5080080;28;20194;-89
2023/10/03 00:50:10;;;;;;;30.08;14.77;;;12.80;99.90;;;;;;5078632;28;20235;-89
2023/10/03 00:52:37;;;;;;;27.55;13.77;;;12.80;99.90;;;;;;5085301;28;20218;-89
2023/10/03 00:55:06;;;;;;;24.95;13.52;;;12.80;99.90;;;;;;5084875;28;20205;-89
2023/10/03 00:57:35;;;;;;;26.17;13.60;;;12.80;99.90;;;;;;5096635;28;20245;-89
2023/10/03 01:00:03;;;;;;;29.08;14.70;;;12.70;99.90;;;;;;5073612;28;20218;-89
2023/10/03 01:02:31;;;;;;;26.40;13.70;;;12.80;99.90;;;;;;5075079;28;20208;-89
2023/10/03 01:05:02;;;;;;;28.58;13.63;;;12.80;99.90;;;;;;5080045;28;20201;-89
2023/10/03 01:07:29;;;;;;;27.65;13.73;;;12.80;99.90;;;;;;5082722;28;20203;-89
2023/10/03 01:09:56;;;;;;;24.38;12.40;;;12.80;99.90;;;;;;5082603;28;20602;-89
2023/10/03 01:12:23;;;;;;;25.42;12.80;;;12.80;99.90;;;;;;5090862;28;20208;-88
2023/10/03 01:14:51;;;;;;;27.10;13.48;;;12.70;99.90;;;;;;5091212;28;20201;-89
2023/10/03 01:17:20;;;;;;;28.42;14.13;;;12.80;99.90;;;;;;5080265;28;20200;-89
2023/10/03 01:19:47;;;;;;;24.73;12.68;;;12.80;99.90;;;;;;5085117;28;20217;-89
2023/10/03 01:22:15;;;;;;;27.50;13.35;;;12.80;99.90;;;;;;5089567;28;20197;-89
2023/10/03 01:24:44;;;;;;;24.00;13.02;;;12.80;99.90;;;;;;5083831;28;20215;-89
2023/10/03 01:27:11;;;;;;;23.30;12.57;;;12.80;99.90;;;;;;5087913;28;20200;-89
2023/10/03 01:29:38;;;;;;;25.42;13.10;;;13.00;99.90;;;;;;5085705;28;20598;-89
2023/10/03 01:32:06;;;;;;;31.85;14.35;;;13.00;99.90;;;;;;5087187;28;20218;-89
2023/10/03 01:34:33;;;;;;;26.88;13.00;;;13.00;99.90;;;;;;5081424;28;20211;-89
2023/10/03 01:37:00;;;;;;;26.73;12.93;;;13.00;99.90;;;;;;5084951;28;20201;-89
2023/10/03 01:39:27;;;;;;;28.92;13.77;;;13.00;99.90;;;;;;5087568;28;20319;-89
2023/10/03 01:41:56;;;;;;;23.30;12.15;;;13.00;99.90;;;;;;5083923;28;20246;-89
2023/10/03 01:44:26;;;;;;;27.13;13.18;;;12.90;99.90;;;;;;5082489;28;20301;-89
2023/10/03 01:46:53;;;;;;;28.08;12.13;;;12.80;99.90;;;;;;5095597;28;20273;-89
2023/10/03 01:49:21;;;;;;;24.90;12.85;;;12.80;99.90;;;;;;5088931;28;20607;-89
2023/10/03 01:51:48;;;;;;;26.08;12.45;;;12.70;99.90;;;;;;5092353;28;20212;-89
2023/10/03 01:54:15;;;;;;;25.73;12.13;;;12.60;99.90;;;;;;5089628;28;20239;-89
2023/10/03 01:56:42;;;;;;;25.23;12.70;;;12.70;99.90;;;;;;5093308;28;20238;-89
2023/10/03 01:59:10;;;;;;;23.98;11.82;;;12.70;99.90;;;;;;5090382;28;20211;-89
2023/10/03 02:01:37;;;;;;;26.60;12.20;;;12.70;99.90;;;;;;5082845;28;20197;-89
2023/10/03 02:04:06;;;;;;;23.27;11.85;;;12.50;99.90;;;;;;5085002;28;20193;-89
2023/10/03 02:06:32;;;;;;;25.30;12.43;;;12.40;99.90;;;;;;5091842;28;20199;-89
2023/10/03 02:08:59;;;;;;;24.55;12.60;;;12.40;99.90;;;;;;5088087;28;20197;-89
2023/10/03 02:11:27;;;;;;;26.05;12.05;;;12.30;99.90;;;;;;5091952;28;20656;-89
2023/10/03 02:13:54;;;;;;;21.02;11.35;;;12.40;99.90;;;;;;5089929;28;20189;-89
2023/10/03 02:16:22;;;;;;;25.08;11.95;;;12.40;99.90;;;;;;5090254;28;20266;-88
2023/10/03 02:18:52;;;;;;;23.98;11.77;;;12.40;99.90;;;;;;5084414;28;20205;-88
2023/10/03 02:21:19;;;;;;;23.20;11.70;;;12.40;99.90;;;;;;5081889;28;20227;-89
2023/10/03 02:23:47;;;;;;;23.92;11.77;;;12.40;99.90;;;;;;5086393;28;20220;-89
2023/10/03 02:26:16;;;;;;;24.35;11.95;;;12.30;99.90;;;;;;5091374;28;20205;-89
2023/10/03 02:28:43;;;;;;;23.23;11.80;;;12.40;99.90;;;;;;5086762;28;20224;-89
2023/10/03 02:31:11;;;;;;;24.15;11.88;;;12.40;99.90;;;;;;5078048;28;20209;-89
2023/10/03 02:33:43;;;;;;;23.15;11.60;;;12.40;99.90;;;;;;5081520;28;20198;-89
2023/10/03 02:36:10;;;;;;;22.02;11.70;;;12.40;99.90;;;;;;5078553;28;20554;-89
2023/10/03 02:38:38;;;;;;;27.05;11.45;;;12.50;99.90;;;;;;5086338;28;20197;-89
2023/10/03 02:41:06;;;;;;;21.85;11.15;;;12.40;99.90;;;;;;5087541;28;20260;-89
2023/10/03 02:43:38;;;;;;;21.33;10.55;;;12.50;99.90;;;;;;5085517;28;20201;-89
2023/10/03 02:46:07;;;;;;;22.50;11.13;;;12.50;99.90;;;;;;5089182;28;20207;-89
2023/10/03 02:48:35;;;;;;;23.60;11.30;;;12.50;99.90;;;;;;5088356;28;20287;-89
2023/10/03 02:51:06;;;;;;;21.50;11.32;;;12.60;99.90;;;;;;5086170;28;20308;-89
2023/10/03 02:53:35;;;;;;;22.92;11.90;;;12.50;99.90;;;;;;5086547;28;20200;-89
2023/10/03 02:56:03;;;;;;;23.60;11.43;;;12.50;99.90;;;;;;5072310;28;20193;-89
2023/10/03 02:58:30;;;;;;;24.33;10.65;;;12.50;99.90;;;;;;5078020;28;20568;-89
2023/10/03 03:00:57;;;;;;;27.13;11.23;;;12.40;99.90;;;;;;5079610;28;20311;-89
2023/10/03 03:03:30;;;;;;;22.10;11.45;;;12.40;99.90;;;;;;5085062;28;20208;-89
2023/10/03 03:05:57;;;;;;;19.88;10.60;;;12.40;99.90;;;;;;5080722;28;20204;-89
2023/10/03 03:08:28;;;;;;;24.90;11.75;;;12.40;99.90;;;;;;5080410;28;20193;-88
2023/10/03 03:10:57;;;;;;;24.10;10.60;;;12.30;99.90;;;;;;5092834;28;20199;-89
2023/10/03 03:13:24;;;;;;;25.40;11.75;;;12.30;99.90;;;;;;5080345;28;20227;-88
2023/10/03 03:15:59;;;;;;;20.95;10.73;;;12.30;99.90;;;;;;5084567;28;20690;-88
2023/10/03 03:18:27;;;;;;;21.25;10.73;;;12.40;99.90;;;;;;5069424;28;20204;-89
2023/10/03 03:20:57;;;;;;;25.52;11.32;;;12.40;99.90;;;;;;5085258;28;20232;-88
2023/10/03 03:23:27;;;;;;;19.52;10.80;;;12.30;99.90;;;;;;5074198;28;20201;-89
2023/10/03 03:26:09;;;;;;;19.90;10.77;;;12.40;99.90;;;;;;5092412;28;20196;-89
2023/10/03 03:28:36;;;;;;;22.20;10.75;;;12.40;99.90;;;;;;5088376;28;20203;-89
2023/10/03 03:31:04;;;;;;;19.92;10.90;;;12.40;99.90;;;;;;5088222;28;20225;-89
2023/10/03 03:33:36;;;;;;;19.70;10.18;;;12.40;99.90;;;;;;5081115;28;20189;-89
2023/10/03 03:36:03;;;;;;;23.77;10.50;;;12.50;99.90;;;;;;5078423;28;20207;-89
2023/10/03 03:38:33;;;;;;;19.38;10.02;;;12.50;99.90;;;;;;5078089;28;20201;-89
2023/10/03 03:41:01;;;;;;;21.85;10.32;;;12.50;99.90;;;;;;5084655;28;20217;-89
2023/10/03 03:43:28;;;;;;;18.63;9.77;;;12.40;99.90;;;;;;5080680;28;20250;-89
2023/10/03 03:45:55;;;;;;;22.23;11.45;;;12.40;99.90;;;;;;5081052;28;20192;-89
2023/10/03 03:48:22;;;;;;;22.52;10.65;;;12.40;99.90;;;;;;5083364;28;20197;-89
2023/10/03 03:50:50;;;;;;;22.80;11.13;;;12.40;99.90;;;;;;5065018;28;20229;-89
2023/10/03 03:53:18;;;;;;;24.20;10.77;;;12.50;99.90;;;;;;5082359;28;20261;-88
2023/10/03 03:55:49;;;;;;;20.23;9.82;;;12.40;99.90;;;;;;5087086;28;20246;-89
2023/10/03 03:58:18;;;;;;;20.35;9.68;;;12.30;99.90;;;;;;5087137;28;20200;-89
2023/10/03 04:00:50;;;;;;;19.70;10.38;;;12.20;99.90;;;;;;5083812;28;20216;-89
2023/10/03 04:03:18;;;;;;;20.70;10.30;;;12.30;99.90;;;;;;5062735;28;20197;-89
2023/10/03 04:05:46;;;;;;;21.85;10.15;;;12.30;99.90;;;;;;5085203;28;20552;-88
2023/10/03 04:08:14;;;;;;;22.77;10.68;;;12.30;99.90;;;;;;5087504;28;20258;-88
2023/10/03 04:10:43;;;;;;;22.40;10.77;;;12.20;99.90;;;;;;5086974;28;20257;-89
2023/10/03 04:13:15;;;;;;;20.50;10.23;;;12.20;99.90;;;;;;5083671;28;20381;-88
2023/10/03 04:15:43;;;;;;;19.10;10.23;;;12.10;99.90;;;;;;5084340;28;20211;-89
2023/10/03 04:18:10;;;;;;;19.92;10.35;;;12.00;99.90;;;;;;5077720;28;20201;-89
2023/10/03 04:20:40;;;;;;;18.67;9.65;;;12.10;99.90;;;;;;5074214;28;20227;-89
2023/10/03 04:23:08;;;;;;;20.45;10.45;;;12.10;99.90;;;;;;5086326;28;20668;-89
2023/10/03 04:25:37;;;;;;;23.08;10.65;;;12.00;99.90;;;;;;5077321;28;20271;-88
2023/10/03 04:28:05;;;;;;;24.63;11.35;;;11.90;99.90;;;;;;5077134;28;20197;-88
2023/10/03 04:30:34;;;;;;;23.30;10.93;;;11.80;99.90;;;;;;5082606;28;20648;-89
2023/10/03 04:33:02;;;;;;;23.85;11.40;;;11.80;99.90;;;;;;5092108;28;20637;-89
2023/10/03 04:35:29;;;;;;;16.35;9.07;;;11.80;99.90;;;;;;5087291;28;20207;-89
2023/10/03 04:37:57;;;;;;;18.88;9.50;;;11.80;99.90;;;;;;5082940;28;20672;-89
2023/10/03 04:40:28;;;;;;;22.70;10.57;;;11.90;99.90;;;;;;5077781;28;20217;-89
2023/10/03 04:42:55;;;;;;;21.05;10.15;;;11.90;99.90;;;;;;5077502;28;20200;-89
2023/10/03 04:45:23;;;;;;;18.45;9.50;;;11.90;99.90;;;;;;5074484;28;20197;-89
2023/10/03 04:47:52;;;;;;;21.08;9.82;;;12.00;99.90;;;;;;5077445;28;20201;-89
2023/10/03 04:50:25;;;;;;;18.95;9.35;;;12.00;99.90;;;;;;5076012;28;20205;-89
2023/10/03 04:52:52;;;;;;;19.88;9.50;;;11.90;99.90;;;;;;5082706;28;20193;-89
2023/10/03 04:55:20;;;;;;;20.50;9.98;;;11.90;99.90;;;;;;5087843;28;20208;-89
2023/10/03 04:57:50;;;;;;;21.70;9.55;;;12.00;99.90;;;;;;5074988;28;20249;-89
2023/10/03 05:00:18;;;;;;;18.52;9.95;;;12.00;99.90;;;;;;5077322;28;20201;-89
2023/10/03 05:02:47;;;;;;;19.45;9.00;;;12.10;99.90;;;;;;5085110;28;20189;-88
2023/10/03 05:05:20;;;;;;;22.05;10.15;;;12.20;99.90;;;;;;5080469;28;20274;-91
2023/10/03 05:07:48;;;;;;;21.23;9.10;;;12.20;99.90;;;;;;5080852;28;20193;-90
2023/10/03 05:10:17;;;;;;;21.63;9.82;;;12.30;99.90;;;;;;5085502;28;20284;-90
2023/10/03 05:12:45;;;;;;;20.52;9.52;;;12.30;99.90;;;;;;5086884;28;20250;-89
2023/10/03 05:15:14;;;;;;;18.75;9.10;;;12.30;99.90;;;;;;5079210;28;20201;-89
2023/10/03 05:17:41;;;;;;;19.13;9.25;;;12.30;99.90;;;;;;5084686;28;20296;-89
2023/10/03 05:20:10;;;;;;;21.90;10.10;;;12.30;99.90;;;;;;5080309;28;20610;-90
2023/10/03 05:25:19;;;;;;;19.23;10.13;;;12.20;99.90;;;;;;5083644;28;20208;-89
2023/10/03 05:27:48;;;;;;;19.83;9.73;;;12.20;99.90;;;;;;5084200;28;20208;-89
2023/10/03 05:30:15;;;;;;;20.98;9.38;;;12.30;99.90;;;;;;5087034;28;20204;-89
2023/10/03 05:32:43;;;;;;;19.15;9.13;;;12.30;99.90;;;;;;5087043;28;20637;-89
2023/10/03 05:35:12;;;;;;;19.80;9.65;;;12.40;99.90;;;;;;5090295;28;20200;-89
2023/10/03 05:37:41;;;;;;;19.73;9.43;;;12.50;99.90;;;;;;5096263;28;20280;-89
2023/10/03 05:40:12;;;;;;;22.73;10.05;;;12.40;99.90;;;;;;5081642;28;20202;-89
2023/10/03 05:42:43;;;;;;;18.63;9.25;;;12.50;99.90;;;;;;5085356;28;20208;-89
2023/10/03 05:45:12;;;;;;;20.88;9.63;;;12.40;99.90;;;;;;5080119;28;20572;-89
2023/10/03 05:47:39;;;;;;;19.80;10.00;;;12.40;99.90;;;;;;5080138;28;20252;-89
2023/10/03 05:50:09;;;;;;;19.42;9.45;;;12.40;99.90;;;;;;5082176;28;20197;-89
2023/10/03 05:52:36;;;;;;;19.35;9.13;;;12.50;99.90;;;;;;5080918;28;20220;-89
2023/10/03 05:55:05;;;;;;;19.23;9.73;;;12.50;99.90;;;;;;5084865;28;20200;-89
2023/10/03 05:57:32;;;;;;;19.17;9.90;;;12.60;99.90;;;;;;5080419;28;20193;-89
2023/10/03 05:59:59;;;;;;;20.27;9.48;;;12.70;99.90;;;;;;5080962;28;20189;-89
2023/10/03 06:02:26;;;;;;;18.75;9.07;;;12.70;99.90;;;;;;5068412;28;20221;-89
2023/10/03 06:04:54;;;;;;;18.27;9.32;;;12.80;99.90;;;;;;5087002;28;20193;-89
2023/10/03 06:07:22;;;;;;;18.85;9.60;;;12.70;99.90;;;;;;5086635;28;20286;-89
2023/10/03 06:09:49;;;;;;;20.20;9.32;;;12.80;99.90;;;;;;5093921;28;20201;-89
2023/10/03 06:12:18;;;;;;;17.20;9.02;;;12.90;99.90;;;;;;5087308;28;20209;-89
2023/10/03 06:14:45;;;;;;;17.88;8.90;;;13.00;99.90;;;;;;5076774;28;20205;-89
2023/10/03 06:17:12;;;;;;;17.95;9.10;;;13.10;99.90;;;;;;5088594;28;20600;-89
2023/10/03 06:19:39;;;;;;;21.00;9.30;;;13.10;99.90;;;;;;5086588;28;20584;-89
2023/10/03 06:22:07;;;;;;;19.50;9.70;;;13.10;99.90;;;;;;5078174;28;20308;-89
2023/10/03 06:24:34;;;;;;;20.20;9.57;;;13.20;99.90;;;;;;5077303;28;20203;-88
2023/10/03 06:27:03;;;;;;;16.67;9.02;;;13.20;99.90;;;;;;5089130;28;20200;-89
2023/10/03 06:29:32;;;;;;;18.27;9.52;;;13.30;99.90;;;;;;5083540;28;20216;-88
2023/10/03 06:31:59;;;;;;;19.10;8.95;;;13.40;99.90;;;;;;5082344;28;20757;-89
2023/10/03 06:34:27;;;;;;;19.48;9.65;;;13.50;99.60;;;;;;5085963;28;20670;-89
2023/10/03 06:36:54;;;;;;;19.33;10.05;;;13.60;99.40;;;;;;5073718;28;20220;-89
2023/10/03 06:39:21;;;;;;;19.13;9.85;;;13.70;99.20;;;;;;5081063;28;20201;-89
2023/10/03 06:41:48;;;;;;;18.67;10.10;;;13.90;98.70;;;;;;5080082;28;20224;-89
2023/10/03 06:44:15;;;;;;;20.55;9.95;;;14.00;98.50;;;;;;5087395;28;20226;-89
2023/10/03 06:46:43;;;;;;;19.40;9.90;;;14.10;98.30;;;;;;5084150;28;20193;-89
2023/10/03 06:49:11;;;;;;;21.80;10.68;;;14.30;97.50;;;;;;5085098;28;20192;-89
2023/10/03 06:51:38;;;;;;;20.95;10.77;;;14.40;97.10;;;;;;5083047;28;20586;-89
2023/10/03 06:54:05;;;;;;;20.90;10.20;;;14.50;96.80;;;;;;5085295;28;20204;-89
2023/10/03 06:56:32;;;;;;;19.65;9.90;;;14.60;96.50;;;;;;5081442;28;20193;-89
2023/10/03 06:59:00;;;;;;;22.90;10.70;;;14.80;95.70;;;;;;5087968;28;20200;-89
2023/10/03 07:01:27;;;;;;;21.13;10.82;;;15.00;95.40;;;;;;5086915;28;20286;-89
2023/10/03 07:03:56;;;;;;;20.98;10.48;;;15.30;94.70;;;;;;5081804;28;20192;-89
2023/10/03 07:06:23;;;;;;;23.02;11.18;;;15.50;93.70;;;;;;5086314;28;20200;-89
2023/10/03 07:08:50;;;;;;;23.08;10.30;;;15.70;93.60;;;;;;5086030;28;20275;-89
2023/10/03 07:11:17;;;;;;;20.67;10.60;;;16.00;92.80;;;;;;5081757;28;20201;-89
2023/10/03 07:13:45;;;;;;;21.38;11.18;;;16.20;92.10;;;;;;5086440;28;20200;-90
2023/10/03 07:16:12;;;;;;;19.58;10.55;;;16.40;91.80;;;;;;5078426;28;20201;-89
2023/10/03 07:18:39;;;;;;;20.98;10.75;;;16.60;90.10;;;;;;5083681;28;20203;-89
2023/10/03 07:21:08;;;;;;;22.00;11.88;;;16.80;88.30;;;;;;5078176;28;20315;-89
2023/10/03 07:23:35;;;;;;;20.33;10.82;;;16.90;85.90;;;;;;5085666;28;20192;-89
2023/10/03 07:26:02;;;;;;;17.17;9.85;;;16.90;84.30;;;;;;5081840;28;20197;-90
2023/10/03 07:28:29;;;;;;;17.15;9.55;;;17.10;81.00;;;;;;5079554;28;20216;-90
2023/10/03 07:30:57;;;;;;;19.98;10.15;;;17.20;77.90;;;;;;5079988;28;20192;-89
2023/10/03 07:33:23;;;;;;;19.45;9.88;;;17.20;78.80;;;;;;5074622;28;20760;-89
2023/10/03 07:35:50;;;;;;;19.40;10.15;;;17.20;78.80;;;;;;5075883;28;20212;-89
2023/10/03 07:38:18;;;;;;;17.33;9.88;;;17.40;72.70;;;;;;5081952;28;20200;-89
2023/10/03 07:40:46;;;;;;;17.83;9.95;;;17.50;69.50;;;;;;5079971;28;20240;-90
2023/10/03 07:43:13;;;;;;;17.30;9.73;;;17.60;69.50;;;;;;5082573;28;20245;-89
2023/10/03 07:45:40;;;;;;;18.40;9.85;;;17.70;69.20;;;;;;5077613;28;20207;-89
2023/10/03 07:48:09;;;;;;;18.60;10.02;;;17.80;69.20;;;;;;5080036;28;20204;-89
2023/10/03 07:50:37;;;;;;;18.35;10.23;;;17.80;69.80;;;;;;5075292;28;20689;-89
2023/10/03 07:53:05;;;;;;;19.30;10.15;;;17.90;68.10;;;;;;5085249;28;20219;-89
2023/10/03 07:55:36;;;;;;;18.38;10.68;;;18.00;66.10;;;;;;5077520;28;20204;-89
2023/10/03 07:58:03;;;;;;;19.00;9.88;;;18.20;64.60;;;;;;5083763;28;20205;-89
2023/10/03 08:00:30;;;;;;;15.57;9.30;;;18.30;60.00;;;;;;5083720;28;20200;-89
2023/10/03 08:02:58;;;;;;;17.38;9.93;;;18.30;60.40;;;;;;5073318;28;20636;-89
2023/10/03 08:05:27;;;;;;;19.25;10.23;;;18.40;60.10;;;;;;5077872;28;20282;-89
2023/10/03 08:07:56;;;;;;;16.60;9.85;;;18.40;58.30;;;;;;5076639;28;20225;-89
2023/10/03 08:10:24;;;;;;;18.35;9.38;;;18.50;57.90;;;;;;5082900;28;20197;-88
2023/10/03 08:12:53;;;;;;;17.50;10.07;;;18.50;56.90;;;;;;5079162;28;20201;-88
2023/10/03 08:15:21;;;;;;;18.42;9.82;;;18.60;58.60;;;;;;5080596;28;20197;-88
2023/10/03 08:17:53;;;;;;;17.83;9.88;;;18.70;58.40;;;;;;5079225;28;20283;-89
2023/10/03 08:20:21;;;;;;;16.75;9.10;;;18.80;57.00;;;;;;5062565;28;20275;-88
2023/10/03 08:22:51;;;;;;;15.43;9.38;;;18.80;57.10;;;;;;5085015;28;20634;-87
2023/10/03 08:25:19;;;;;;;14.23;8.63;;;18.90;59.00;;;;;;5079388;28;20201;-87
2023/10/03 08:27:47;;;;;;;16.73;9.15;;;19.10;58.40;;;;;;5082913;28;20699;-87
2023/10/03 08:30:27;;;;;;;14.70;7.97;;;19.30;57.30;;;;;;5080549;28;20216;-87
2023/10/03 08:32:56;;;;;;;17.50;8.73;;;19.50;55.40;;;;;;5078162;28;20228;-87
2023/10/03 08:35:34;;;;;;;14.15;8.18;;;19.60;52.40;;;;;;5084847;28;20462;-87
2023/10/03 08:38:05;;;;;;;16.13;8.45;;;19.80;53.00;;;;;;5079562;28;20219;-87
2023/10/03 08:40:36;;;;;;;16.30;8.57;;;20.00;50.00;;;;;;5082885;28;20199;-87
2023/10/03 08:43:05;;;;;;;15.20;8.82;;;20.20;46.10;;;;;;5078193;28;20221;-87
2023/10/03 08:45:40;;;;;;;12.45;7.75;;;20.40;44.10;;;;;;5081129;28;20197;-87
2023/10/03 08:48:08;;;;;;;13.02;8.13;;;20.50;42.10;;;;;;5078439;28;20211;-87
2023/10/03 08:50:40;;;;;;;13.48;8.13;;;20.60;42.50;;;;;;5075805;28;20222;-89
2023/10/03 08:53:16;;;;;;;13.80;7.65;;;20.70;41.80;;;;;;5079684;28;20205;-87
2023/10/03 08:55:47;;;;;;;11.48;7.50;;;21.10;36.00;;;;;;5081649;28;20188;-87
2023/10/03 08:58:14;;;;;;;14.15;8.73;;;21.40;33.20;;;;;;5085209;28;20215;-87
2023/10/03 09:00:46;;;;;;;11.35;7.45;;;21.80;31.70;;;;;;5083234;28;20230;-85
2023/10/03 09:03:14;;;;;;;13.80;8.13;;;22.10;30.30;;;;;;5085807;28;20220;-85
2023/10/03 09:05:41;;;;;;;11.15;7.38;;;22.50;28.60;;;;;;5080762;28;20257;-84
2023/10/03 09:08:09;;;;;;;12.68;7.30;;;22.70;27.80;;;;;;5080086;28;20209;-84
2023/10/03 09:10:52;;;;;;;12.80;7.35;;;23.00;25.40;;;;;;5083511;28;20193;-84
2023/10/03 09:13:24;;;;;;;11.00;7.32;;;23.40;23.10;;;;;;5079032;28;20204;-85
2023/10/03 09:15:59;;;;;;;10.88;6.93;;;23.60;22.30;;;;;;5081060;28;20197;-85
2023/10/03 09:18:29;;;;;;;13.00;8.50;;;24.20;22.00;;;;;;5079372;28;20291;-82
2023/10/03 09:21:04;;;;;;;10.57;7.78;;;25.40;19.80;;;;;;5079612;28;20196;-85
2023/10/03 09:23:39;;;;;;;10.93;7.47;;;26.40;16.40;;;;;;5091880;28;20211;-86
2023/10/03 09:26:08;;;;;;;12.93;8.73;;;27.90;13.20;;;;;;5076139;28;20676;-86
2023/10/03 09:28:40;;;;;;;11.73;8.25;;;29.20;10.70;;;;;;5073712;28;20267;-85
2023/10/03 09:31:11;;;;;;;13.15;8.63;;;30.10;9.50;;;;;;5081447;28;20192;-86
2023/10/03 09:33:39;;;;;;;12.27;8.70;;;30.80;8.80;;;;;;5081635;28;20207;-87
2023/10/03 09:36:07;;;;;;;11.63;9.45;;;31.00;6.60;;;;;;5085011;28;20262;-87
2023/10/03 09:38:45;;;;;;;12.10;9.98;;;31.50;6.70;;;;;;5086623;28;20583;-86
2023/10/03 09:41:21;;;;;;;10.13;9.05;;;31.70;6.10;;;;;;5086697;28;20192;-87
2023/10/03 09:43:55;;;;;;;10.27;9.00;;;32.20;6.10;;;;;;5075955;28;20225;-86
2023/10/03 09:46:25;;;;;;;11.40;9.65;;;32.30;5.60;;;;;;5083505;28;20198;-86
2023/10/03 09:48:54;;;;;;;13.80;10.82;;;33.20;1.20;;;;;;5091408;28;20593;-87
2023/10/03 09:51:46;;;;;;;9.25;7.97;;;32.50;4.20;;;;;;5084266;28;20583;-87
2023/10/03 09:54:23;;;;;;;8.93;7.45;;;32.30;5.00;;;;;;5078846;28;20204;-88
2023/10/03 09:56:51;;;;;;;9.52;8.05;;;31.80;4.20;;;;;;5084819;28;20191;-87
2023/10/03 09:59:19;;;;;;;12.18;8.13;;;32.00;4.20;;;;;;5084931;28;20206;-86
2023/10/03 10:01:48;;;;;;;8.43;7.50;;;31.80;3.10;;;;;;5077958;28;20195;-91
2023/10/03 10:04:19;;;;;;;8.48;7.30;;;31.50;3.80;;;;;;5086755;28;20205;-89
2023/10/03 10:06:51;;;;;;;10.13;8.27;;;31.80;1.90;;;;;;5080278;28;20197;-87
2023/10/03 10:09:28;;;;;;;11.02;8.00;;;31.80;3.10;;;;;;5086806;28;20200;-88
2023/10/03 10:12:18;;;;;;;8.73;7.45;;;31.40;3.80;;;;;;5087923;28;20547;-88
2023/10/03 10:15:17;;;;;;;8.45;7.50;;;31.00;4.30;;;;;;5079952;28;20208;-89
2023/10/03 10:17:56;;;;;;;10.35;6.90;;;30.80;3.30;;;;;;5080904;28;20648;-89
2023/10/03 10:23:16;;;;;;;8.55;7.30;;;30.50;5.30;;;;;;5075738;28;20240;-87
2023/10/03 10:25:51;;;;;;;8.68;7.07;;;30.70;5.70;;;;;;5079771;28;20699;-87
2023/10/03 10:28:21;;;;;;;8.15;6.50;;;30.90;4.20;;;;;;5077251;28;20257;-86
2023/10/03 10:31:22;;;;;;;11.05;7.95;;;30.30;5.40;;;;;;5087579;28;20212;-87
2023/10/03 10:34:11;;;;;;;8.40;6.57;;;30.60;7.30;;;;;;5081549;28;20579;-86
2023/10/03 10:36:57;;;;;;;11.68;7.13;;;30.30;6.00;;;;;;5076690;28;20275;-87
2023/10/03 10:40:12;;;;;;;10.10;7.05;;;30.00;6.50;;;;;;5084025;28;20224;-87
2023/10/03 10:42:59;;;;;;;9.25;6.57;;;30.00;5.20;;;;;;5074359;28;20232;-87
2023/10/03 10:45:26;;;;;;;8.82;7.03;;;30.20;5.40;;;;;;5082076;28;20192;-84
2023/10/03 10:47:54;;;;;;;8.15;6.63;;;29.90;4.70;;;;;;5078103;28;20209;-84
2023/10/03 10:50:25;;;;;;;7.47;6.50;;;30.00;5.90;;;;;;5076391;28;20196;-85
2023/10/03 10:52:56;;;;;;;8.05;6.53;;;30.00;6.80;;;;;;5077970;28;20196;-85
2023/10/03 10:55:26;;;;;;;9.57;5.90;;;30.10;4.90;;;;;;5079309;28;20279;-85
2023/10/03 10:58:07;;;;;;;7.90;5.93;;;29.90;5.90;;;;;;5076487;28;20223;-85
2023/10/03 11:00:34;;;;;;;8.65;6.43;;;29.70;6.90;;;;;;5079361;28;20222;-85
2023/10/03 11:03:02;;;;;;;9.30;6.82;;;29.20;5.70;;;;;;5079417;28;20560;-85
2023/10/03 11:05:46;;;;;;;9.38;6.53;;;29.00;7.00;;;;;;5088472;28;20196;-86
2023/10/03 11:08:13;;;;;;;9.88;6.47;;;28.70;6.90;;;;;;5085162;28;20223;-85
2023/10/03 11:10:52;;;;;;;9.15;6.22;;;28.60;9.40;;;;;;5080759;28;20631;-86
2023/10/03 11:13:20;;;;;;;8.95;5.97;;;28.50;8.90;;;;;;5075611;28;20695;-87
2023/10/03 11:15:50;;;;;;;12.65;6.50;;;28.20;8.60;;;;;;5086603;28;20683;-87
2023/10/03 11:18:18;;;;;;;11.25;6.00;;;27.90;9.50;;;;;;5079089;28;20200;-86
2023/10/03 11:20:47;;;;;;;9.65;6.50;;;27.50;9.80;;;;;;5082604;28;20196;-85
2023/10/03 11:23:18;;;;;;;8.45;5.95;;;27.40;10.70;;;;;;5081606;28;20274;-84
2023/10/03 11:25:54;;;;;;;8.10;5.75;;;27.40;10.60;;;;;;5080552;28;20279;-84
2023/10/03 11:28:21;;;;;;;8.93;5.50;;;27.50;11.10;;;;;;5077431;28;20204;-83
2023/10/03 11:31:01;;;;;;;9.30;5.88;;;27.50;10.10;;;;;;5083272;28;20206;-80
2023/10/03 11:33:28;;;;;;;8.02;5.57;;;27.10;10.90;;;;;;5076827;28;20727;-80
2023/10/03 11:35:56;;;;;;;7.88;5.20;;;26.80;11.20;;;;;;5080330;28;20207;-81
2023/10/03 11:38:23;;;;;;;9.25;5.60;;;26.50;11.00;;;;;;5082601;28;20676;-84
2023/10/03 11:40:50;;;;;;;10.65;5.22;;;26.30;11.90;;;;;;5078040;28;20208;-83
2023/10/03 11:43:22;;;;;;;13.10;6.18;;;26.10;12.20;;;;;;5080291;28;20224;-84
2023/10/03 11:45:56;;;;;;;8.13;5.20;;;26.20;12.00;;;;;;5079194;28;20289;-85
2023/10/03 11:48:23;;;;;;;9.63;5.28;;;26.10;12.00;;;;;;5085082;28;20537;-85
2023/10/03 11:50:50;;;;;;;8.93;5.22;;;26.30;12.40;;;;;;5087545;28;20238;-84
2023/10/03 11:53:21;;;;;;;9.55;5.15;;;26.40;11.90;;;;;;5076919;28;20197;-82
2023/10/03 11:55:53;;;;;;;7.88;5.32;;;26.60;11.30;;;;;;5071542;28;20783;-83
2023/10/03 11:58:20;;;;;;;8.73;5.85;;;26.80;10.50;;;;;;5086659;28;20661;-83
2023/10/03 12:00:49;;;;;;;7.40;5.13;;;26.90;11.00;;;;;;5080895;28;20200;-84
2023/10/03 12:03:16;;;;;;;10.00;5.35;;;26.90;10.70;;;;;;5081283;28;20219;-84
2023/10/03 12:05:45;;;;;;;7.43;5.22;;;26.90;10.80;;;;;;5082968;28;20204;-85
2023/10/03 12:08:13;;;;;;;10.60;5.20;;;27.00;10.80;;;;;;5088746;28;20200;-84
2023/10/03 12:10:41;;;;;;;8.88;5.55;;;27.10;9.80;;;;;;5081440;28;20204;-84
2023/10/03 12:13:13;;;;;;;14.10;5.80;;;27.00;9.80;;;;;;5077693;28;20211;-86
2023/10/03 12:15:42;;;;;;;15.20;5.72;;;26.60;10.80;;;;;;5079754;28;20188;-85
2023/10/03 12:18:09;;;;;;;12.60;5.63;;;26.40;11.30;;;;;;5082119;28;20816;-83
2023/10/03 12:20:38;;;;;;;9.38;4.75;;;26.30;11.60;;;;;;5075301;28;20192;-82
2023/10/03 12:23:04;;;;;;;10.07;5.05;;;26.30;11.90;;;;;;5078716;28;20289;-84
2023/10/03 12:25:31;;;;;;;9.18;5.15;;;26.20;11.60;;;;;;5080754;28;20219;-84
2023/10/03 12:28:02;;;;;;;8.55;4.65;;;26.10;12.20;;;;;;5077129;28;20201;-83
2023/10/03 12:30:29;;;;;;;9.70;5.03;;;26.10;12.50;;;;;;5077953;28;20224;-84
2023/10/03 12:32:57;;;;;;;6.93;4.63;;;26.10;11.80;;;;;;5082387;28;20277;-84
2023/10/03 12:35:24;;;;;;;7.80;4.80;;;26.00;11.70;;;;;;5071539;28;20580;-83
2023/10/03 12:37:51;;;;;;;12.20;4.60;;;25.70;12.50;;;;;;5078291;28;20661;-83
2023/10/03 12:40:21;;;;;;;7.22;4.40;;;25.50;11.50;;;;;;5081424;28;20204;-83
2023/10/03 12:42:50;;;;;;;7.25;4.53;;;25.60;11.60;;;;;;5078505;28;20217;-83
2023/10/03 12:45:20;;;;;;;6.53;4.30;;;25.80;12.70;;;;;;5077886;28;20197;-83
2023/10/03 12:47:48;;;;;;;8.80;4.35;;;26.00;11.30;;;;;;5077440;28;20201;-86
2023/10/03 12:50:16;;;;;;;6.20;4.10;;;26.10;11.30;;;;;;5084578;28;20284;-88
2023/10/03 12:52:43;;;;;;;7.25;4.00;;;26.00;11.30;;;;;;5082543;28;20280;-88